This is the latest recevied weather packets stored in our database for station/object N1ORT. If no packets are shown the sender has not sent any weather packets the latest 10 day(s).
| Time | Temp. | Humidity | Pressure | Rain* | Wind** | Luminosity | Snow |
|---|---|---|---|---|---|---|---|
| 1777575717 | 10.56° C | 98% | 1004 hPa | 0 mm | - | 242 W/m² | - |
| 1777575413 | 10.56° C | 98% | 1004.3 hPa | 0 mm | - | 248 W/m² | - |
| 1777575109 | 10° C | 99% | 1004.4 hPa | 0 mm | - | 207 W/m² | - |
| 1777574804 | 10° C | 99% | 1004.2 hPa | 0 mm | - | 261 W/m² | - |
| 1777574503 | 10° C | 99% | 1004.6 hPa | 0.51 mm | - | 178 W/m² | - |
| 1777574199 | 10° C | 99% | 1004.5 hPa | 0.51 mm | - | 190 W/m² | - |
| 1777573894 | 10° C | 99% | 1004.6 hPa | 0 mm | - | 151 W/m² | - |
| 1777573593 | 10° C | 99% | 1004.6 hPa | 0 mm | - | 156 W/m² | - |
| 1777573291 | 10° C | 99% | 1004.7 hPa | 0.51 mm | - | 258 W/m² | - |
| 1777572987 | 10° C | 99% | 1004.9 hPa | 0 mm | - | 149 W/m² | - |
| 1777572682 | 10° C | 99% | 1005.1 hPa | 0.51 mm | - | 114 W/m² | - |
| 1777572382 | 10° C | 99% | 1005 hPa | 0.51 mm | - | 120 W/m² | - |
| 1777572079 | 10° C | 99% | 1005.1 hPa | 0.51 mm | - | 104 W/m² | - |
| 1777571779 | 10° C | 99% | 1005.1 hPa | 0.51 mm | - | 159 W/m² | - |
| 1777571476 | 10° C | 99% | 1005 hPa | 0.51 mm | - | 185 W/m² | - |
| 1777571173 | 10° C | 99% | 1005.1 hPa | 1.27 mm | - | 158 W/m² | - |
| 1777570868 | 10° C | 99% | 1005.1 hPa | 0.51 mm | - | 133 W/m² | - |
| 1777570564 | 9.44° C | 99% | 1004.9 hPa | 0 mm | - | 206 W/m² | - |
| 1777570262 | 9.44° C | 99% | 1005.1 hPa | 0.51 mm | - | 233 W/m² | - |
| 1777569957 | 9.44° C | 99% | 1005.3 hPa | 1.78 mm | - | 146 W/m² | - |
| 1777569653 | 9.44° C | 99% | 1005.4 hPa | 1.78 mm | - | 111 W/m² | - |
| 1777569349 | 9.44° C | 99% | 1005.5 hPa | 1.78 mm | - | 103 W/m² | - |
| 1777569045 | 9.44° C | 99% | 1005.6 hPa | 2.29 mm | - | 89 W/m² | - |
| 1777568742 | 9.44° C | 99% | 1005.5 hPa | 1.78 mm | - | 85 W/m² | - |
| 1777568440 | 9.44° C | 99% | 1005.3 hPa | 1.27 mm | - | 92 W/m² | - |
* Rain latest hour (hover to see other rain measurements)
** Current wind speed in m/s (hover to see current wind gust speed)